sensor_id;sensor_type;location;lat;lon;timestamp;P1;durP1;ratioP1;P2;durP2;ratioP2
60612;SDS011;46443;59.792;17.626;2022-10-17T00:00:17;5.83;;;1.63;;
60612;SDS011;46443;59.792;17.626;2022-10-17T00:02:43;6.43;;;1.50;;
60612;SDS011;46443;59.792;17.626;2022-10-17T00:05:09;7.33;;;1.90;;
60612;SDS011;46443;59.792;17.626;2022-10-17T00:07:36;6.00;;;1.93;;
60612;SDS011;46443;59.792;17.626;2022-10-17T00:10:03;5.47;;;1.63;;
60612;SDS011;46443;59.792;17.626;2022-10-17T00:12:29;8.53;;;1.90;;
60612;SDS011;46443;59.792;17.626;2022-10-17T00:14:55;5.60;;;1.57;;
60612;SDS011;46443;59.792;17.626;2022-10-17T00:17:21;8.63;;;1.80;;
60612;SDS011;46443;59.792;17.626;2022-10-17T00:19:47;4.77;;;1.73;;
60612;SDS011;46443;59.792;17.626;2022-10-17T00:22:13;6.40;;;1.87;;
60612;SDS011;46443;59.792;17.626;2022-10-17T00:24:39;9.40;;;1.80;;
60612;SDS011;46443;59.792;17.626;2022-10-17T00:27:05;8.37;;;2.40;;
60612;SDS011;46443;59.792;17.626;2022-10-17T00:29:31;8.90;;;1.97;;
60612;SDS011;46443;59.792;17.626;2022-10-17T00:31:57;5.20;;;1.60;;
60612;SDS011;46443;59.792;17.626;2022-10-17T00:34:24;5.63;;;1.60;;
60612;SDS011;46443;59.792;17.626;2022-10-17T00:36:50;8.20;;;2.00;;
60612;SDS011;46443;59.792;17.626;2022-10-17T00:39:16;6.80;;;1.50;;
60612;SDS011;46443;59.792;17.626;2022-10-17T00:41:42;9.03;;;2.70;;
60612;SDS011;46443;59.792;17.626;2022-10-17T00:46:58;5.53;;;1.90;;
60612;SDS011;46443;59.792;17.626;2022-10-17T00:49:26;4.73;;;1.53;;
60612;SDS011;46443;59.792;17.626;2022-10-17T00:51:54;6.17;;;1.90;;
60612;SDS011;46443;59.792;17.626;2022-10-17T00:54:24;5.97;;;1.77;;
60612;SDS011;46443;59.792;17.626;2022-10-17T00:56:52;5.53;;;1.90;;
60612;SDS011;46443;59.792;17.626;2022-10-17T00:59:19;5.57;;;1.93;;
60612;SDS011;46443;59.792;17.626;2022-10-17T01:04:30;4.63;;;1.30;;
60612;SDS011;46443;59.792;17.626;2022-10-17T01:06:57;6.53;;;1.60;;
60612;SDS011;46443;59.792;17.626;2022-10-17T01:09:23;4.33;;;1.43;;
60612;SDS011;46443;59.792;17.626;2022-10-17T01:14:32;5.27;;;1.47;;
60612;SDS011;46443;59.792;17.626;2022-10-17T01:22:37;5.00;;;1.63;;
60612;SDS011;46443;59.792;17.626;2022-10-17T01:27:28;10.13;;;2.10;;
60612;SDS011;46443;59.792;17.626;2022-10-17T01:32:36;3.60;;;1.30;;
60612;SDS011;46443;59.792;17.626;2022-10-17T01:35:21;6.40;;;1.30;;
60612;SDS011;46443;59.792;17.626;2022-10-17T01:40:20;4.83;;;1.40;;
60612;SDS011;46443;59.792;17.626;2022-10-17T01:42:51;4.33;;;1.50;;
60612;SDS011;46443;59.792;17.626;2022-10-17T01:45:28;4.63;;;1.60;;
60612;SDS011;46443;59.792;17.626;2022-10-17T01:47:57;10.03;;;1.60;;
60612;SDS011;46443;59.792;17.626;2022-10-17T01:50:27;2.77;;;1.20;;
60612;SDS011;46443;59.792;17.626;2022-10-17T01:52:56;2.67;;;1.63;;
60612;SDS011;46443;59.792;17.626;2022-10-17T01:55:25;4.22;;;1.23;;
60612;SDS011;46443;59.792;17.626;2022-10-17T01:58:04;3.53;;;1.25;;
60612;SDS011;46443;59.792;17.626;2022-10-17T02:00:31;4.47;;;1.37;;
60612;SDS011;46443;59.792;17.626;2022-10-17T02:03:01;7.80;;;1.40;;
60612;SDS011;46443;59.792;17.626;2022-10-17T02:05:32;4.30;;;1.38;;
60612;SDS011;46443;59.792;17.626;2022-10-17T02:08:00;4.07;;;1.30;;
60612;SDS011;46443;59.792;17.626;2022-10-17T02:13:00;5.63;;;2.03;;
60612;SDS011;46443;59.792;17.626;2022-10-17T02:15:39;3.00;;;1.10;;
60612;SDS011;46443;59.792;17.626;2022-10-17T02:18:15;6.40;;;1.37;;
60612;SDS011;46443;59.792;17.626;2022-10-17T02:26:10;3.23;;;1.47;;
60612;SDS011;46443;59.792;17.626;2022-10-17T02:31:08;5.97;;;1.30;;
60612;SDS011;46443;59.792;17.626;2022-10-17T02:36:38;3.27;;;1.43;;
60612;SDS011;46443;59.792;17.626;2022-10-17T02:39:05;5.50;;;1.23;;
60612;SDS011;46443;59.792;17.626;2022-10-17T02:41:32;2.30;;;1.20;;
60612;SDS011;46443;59.792;17.626;2022-10-17T02:43:58;3.47;;;1.27;;
60612;SDS011;46443;59.792;17.626;2022-10-17T02:46:26;3.80;;;1.30;;
60612;SDS011;46443;59.792;17.626;2022-10-17T02:51:44;3.23;;;1.40;;
60612;SDS011;46443;59.792;17.626;2022-10-17T02:54:16;1.67;;;1.00;;
60612;SDS011;46443;59.792;17.626;2022-10-17T02:56:52;2.03;;;1.03;;
60612;SDS011;46443;59.792;17.626;2022-10-17T02:59:20;4.87;;;1.47;;
60612;SDS011;46443;59.792;17.626;2022-10-17T03:01:48;3.63;;;1.30;;
60612;SDS011;46443;59.792;17.626;2022-10-17T03:04:15;4.27;;;1.33;;
60612;SDS011;46443;59.792;17.626;2022-10-17T03:06:42;4.53;;;1.23;;
60612;SDS011;46443;59.792;17.626;2022-10-17T03:09:09;2.63;;;1.00;;
60612;SDS011;46443;59.792;17.626;2022-10-17T03:11:35;5.00;;;1.50;;
60612;SDS011;46443;59.792;17.626;2022-10-17T03:14:01;7.03;;;1.77;;
60612;SDS011;46443;59.792;17.626;2022-10-17T03:16:27;2.27;;;1.30;;
60612;SDS011;46443;59.792;17.626;2022-10-17T03:18:53;3.07;;;1.27;;
60612;SDS011;46443;59.792;17.626;2022-10-17T03:21:19;2.50;;;1.10;;
60612;SDS011;46443;59.792;17.626;2022-10-17T03:23:45;4.07;;;1.13;;
60612;SDS011;46443;59.792;17.626;2022-10-17T03:26:11;3.37;;;0.80;;
60612;SDS011;46443;59.792;17.626;2022-10-17T03:28:37;1.83;;;1.00;;
60612;SDS011;46443;59.792;17.626;2022-10-17T03:31:11;2.60;;;1.10;;
60612;SDS011;46443;59.792;17.626;2022-10-17T03:33:37;4.57;;;1.20;;
60612;SDS011;46443;59.792;17.626;2022-10-17T03:36:04;3.13;;;1.17;;
60612;SDS011;46443;59.792;17.626;2022-10-17T03:38:31;3.33;;;1.00;;
60612;SDS011;46443;59.792;17.626;2022-10-17T03:40:57;5.17;;;1.20;;
60612;SDS011;46443;59.792;17.626;2022-10-17T03:43:23;2.63;;;0.80;;
60612;SDS011;46443;59.792;17.626;2022-10-17T03:45:49;4.63;;;1.03;;
60612;SDS011;46443;59.792;17.626;2022-10-17T03:48:15;2.63;;;1.00;;
60612;SDS011;46443;59.792;17.626;2022-10-17T03:50:41;3.33;;;0.80;;
60612;SDS011;46443;59.792;17.626;2022-10-17T03:53:07;5.00;;;1.03;;
60612;SDS011;46443;59.792;17.626;2022-10-17T03:55:33;3.07;;;1.20;;
60612;SDS011;46443;59.792;17.626;2022-10-17T03:57:59;6.70;;;1.60;;
60612;SDS011;46443;59.792;17.626;2022-10-17T04:00:25;4.53;;;1.43;;
60612;SDS011;46443;59.792;17.626;2022-10-17T04:02:51;2.80;;;0.80;;
60612;SDS011;46443;59.792;17.626;2022-10-17T04:05:17;5.20;;;1.20;;
60612;SDS011;46443;59.792;17.626;2022-10-17T04:07:43;3.70;;;1.33;;
60612;SDS011;46443;59.792;17.626;2022-10-17T04:10:09;4.53;;;1.30;;
60612;SDS011;46443;59.792;17.626;2022-10-17T04:12:37;2.93;;;1.20;;
60612;SDS011;46443;59.792;17.626;2022-10-17T04:15:03;4.57;;;1.20;;
60612;SDS011;46443;59.792;17.626;2022-10-17T04:17:29;5.37;;;1.17;;
60612;SDS011;46443;59.792;17.626;2022-10-17T04:19:55;3.97;;;1.20;;
60612;SDS011;46443;59.792;17.626;2022-10-17T04:22:21;5.13;;;1.27;;
60612;SDS011;46443;59.792;17.626;2022-10-17T04:24:47;2.23;;;1.10;;
60612;SDS011;46443;59.792;17.626;2022-10-17T04:27:13;2.30;;;0.90;;
60612;SDS011;46443;59.792;17.626;2022-10-17T04:29:39;7.23;;;1.80;;
60612;SDS011;46443;59.792;17.626;2022-10-17T04:32:06;7.67;;;1.43;;
60612;SDS011;46443;59.792;17.626;2022-10-17T04:34:32;6.00;;;1.40;;
60612;SDS011;46443;59.792;17.626;2022-10-17T04:36:58;4.33;;;1.20;;
60612;SDS011;46443;59.792;17.626;2022-10-17T04:39:24;3.23;;;1.20;;
60612;SDS011;46443;59.792;17.626;2022-10-17T04:41:50;2.83;;;1.10;;
60612;SDS011;46443;59.792;17.626;2022-10-17T04:44:16;3.80;;;1.10;;
60612;SDS011;46443;59.792;17.626;2022-10-17T04:46:42;5.33;;;1.50;;
60612;SDS011;46443;59.792;17.626;2022-10-17T04:49:08;2.70;;;1.10;;
60612;SDS011;46443;59.792;17.626;2022-10-17T04:51:34;5.20;;;1.80;;
60612;SDS011;46443;59.792;17.626;2022-10-17T04:54:00;3.67;;;1.27;;
60612;SDS011;46443;59.792;17.626;2022-10-17T04:56:26;4.67;;;1.37;;
60612;SDS011;46443;59.792;17.626;2022-10-17T04:58:52;6.90;;;1.53;;
60612;SDS011;46443;59.792;17.626;2022-10-17T05:01:19;2.97;;;1.50;;
60612;SDS011;46443;59.792;17.626;2022-10-17T05:03:46;4.97;;;1.30;;
60612;SDS011;46443;59.792;17.626;2022-10-17T05:06:19;4.60;;;1.10;;
60612;SDS011;46443;59.792;17.626;2022-10-17T05:08:45;3.57;;;1.60;;
60612;SDS011;46443;59.792;17.626;2022-10-17T05:11:30;4.73;;;1.20;;
60612;SDS011;46443;59.792;17.626;2022-10-17T05:13:57;5.17;;;1.60;;
60612;SDS011;46443;59.792;17.626;2022-10-17T05:16:24;2.23;;;0.97;;
60612;SDS011;46443;59.792;17.626;2022-10-17T05:18:51;4.73;;;1.23;;
60612;SDS011;46443;59.792;17.626;2022-10-17T05:21:17;4.67;;;1.40;;
60612;SDS011;46443;59.792;17.626;2022-10-17T05:23:43;4.83;;;1.43;;
60612;SDS011;46443;59.792;17.626;2022-10-17T05:26:09;6.53;;;1.53;;
60612;SDS011;46443;59.792;17.626;2022-10-17T05:28:35;3.13;;;1.13;;
60612;SDS011;46443;59.792;17.626;2022-10-17T05:31:05;6.40;;;2.00;;
60612;SDS011;46443;59.792;17.626;2022-10-17T05:33:31;3.85;;;1.30;;
60612;SDS011;46443;59.792;17.626;2022-10-17T05:35:58;4.60;;;1.40;;
60612;SDS011;46443;59.792;17.626;2022-10-17T05:38:24;4.97;;;1.30;;
60612;SDS011;46443;59.792;17.626;2022-10-17T05:40:50;5.87;;;1.50;;
60612;SDS011;46443;59.792;17.626;2022-10-17T05:43:16;7.73;;;1.30;;
60612;SDS011;46443;59.792;17.626;2022-10-17T05:45:42;3.53;;;1.40;;
60612;SDS011;46443;59.792;17.626;2022-10-17T05:48:09;3.97;;;1.30;;
60612;SDS011;46443;59.792;17.626;2022-10-17T05:50:35;4.07;;;1.43;;
60612;SDS011;46443;59.792;17.626;2022-10-17T05:53:01;5.00;;;1.40;;
60612;SDS011;46443;59.792;17.626;2022-10-17T05:55:27;3.60;;;1.23;;
60612;SDS011;46443;59.792;17.626;2022-10-17T05:57:53;4.50;;;1.30;;
60612;SDS011;46443;59.792;17.626;2022-10-17T06:00:19;3.60;;;1.10;;
60612;SDS011;46443;59.792;17.626;2022-10-17T06:02:46;4.23;;;1.60;;
60612;SDS011;46443;59.792;17.626;2022-10-17T06:05:12;5.13;;;1.87;;
60612;SDS011;46443;59.792;17.626;2022-10-17T06:07:38;3.70;;;1.30;;
60612;SDS011;46443;59.792;17.626;2022-10-17T06:10:05;8.77;;;1.50;;
60612;SDS011;46443;59.792;17.626;2022-10-17T06:12:31;5.43;;;1.40;;
60612;SDS011;46443;59.792;17.626;2022-10-17T06:14:57;4.67;;;1.87;;
60612;SDS011;46443;59.792;17.626;2022-10-17T06:17:23;6.63;;;1.83;;
60612;SDS011;46443;59.792;17.626;2022-10-17T06:19:49;3.37;;;1.20;;
60612;SDS011;46443;59.792;17.626;2022-10-17T06:22:15;4.93;;;1.50;;
60612;SDS011;46443;59.792;17.626;2022-10-17T06:24:41;4.77;;;1.63;;
60612;SDS011;46443;59.792;17.626;2022-10-17T06:27:07;4.57;;;1.43;;
60612;SDS011;46443;59.792;17.626;2022-10-17T06:29:33;2.87;;;1.10;;
60612;SDS011;46443;59.792;17.626;2022-10-17T06:31:59;3.83;;;1.30;;
60612;SDS011;46443;59.792;17.626;2022-10-17T06:34:26;3.47;;;1.27;;
60612;SDS011;46443;59.792;17.626;2022-10-17T06:36:52;2.47;;;1.47;;
60612;SDS011;46443;59.792;17.626;2022-10-17T06:39:18;3.77;;;1.37;;
60612;SDS011;46443;59.792;17.626;2022-10-17T06:41:44;6.83;;;2.03;;
60612;SDS011;46443;59.792;17.626;2022-10-17T06:44:10;3.53;;;1.30;;
60612;SDS011;46443;59.792;17.626;2022-10-17T06:46:37;3.73;;;1.40;;
60612;SDS011;46443;59.792;17.626;2022-10-17T06:49:03;4.90;;;1.40;;
60612;SDS011;46443;59.792;17.626;2022-10-17T06:51:30;5.17;;;1.50;;
60612;SDS011;46443;59.792;17.626;2022-10-17T06:53:57;5.23;;;1.20;;
60612;SDS011;46443;59.792;17.626;2022-10-17T06:56:23;2.27;;;1.00;;
60612;SDS011;46443;59.792;17.626;2022-10-17T06:58:49;2.90;;;1.20;;
60612;SDS011;46443;59.792;17.626;2022-10-17T07:01:15;3.37;;;1.20;;
60612;SDS011;46443;59.792;17.626;2022-10-17T07:03:41;8.57;;;1.60;;
60612;SDS011;46443;59.792;17.626;2022-10-17T07:06:08;4.67;;;1.37;;
60612;SDS011;46443;59.792;17.626;2022-10-17T07:08:37;4.32;;;1.13;;
60612;SDS011;46443;59.792;17.626;2022-10-17T07:11:17;2.83;;;1.30;;
60612;SDS011;46443;59.792;17.626;2022-10-17T07:13:43;2.27;;;1.20;;
60612;SDS011;46443;59.792;17.626;2022-10-17T07:16:10;4.03;;;1.27;;
60612;SDS011;46443;59.792;17.626;2022-10-17T07:18:36;4.47;;;1.60;;
60612;SDS011;46443;59.792;17.626;2022-10-17T07:21:03;4.00;;;1.20;;
60612;SDS011;46443;59.792;17.626;2022-10-17T07:23:29;5.33;;;1.90;;
60612;SDS011;46443;59.792;17.626;2022-10-17T07:25:59;5.00;;;1.40;;
60612;SDS011;46443;59.792;17.626;2022-10-17T07:28:26;4.37;;;1.40;;
60612;SDS011;46443;59.792;17.626;2022-10-17T07:30:53;4.97;;;1.30;;
60612;SDS011;46443;59.792;17.626;2022-10-17T07:33:19;3.97;;;1.43;;
60612;SDS011;46443;59.792;17.626;2022-10-17T07:35:45;3.90;;;1.17;;
60612;SDS011;46443;59.792;17.626;2022-10-17T07:38:11;2.30;;;1.13;;
60612;SDS011;46443;59.792;17.626;2022-10-17T07:40:37;5.70;;;1.50;;
60612;SDS011;46443;59.792;17.626;2022-10-17T07:43:03;5.33;;;1.13;;
60612;SDS011;46443;59.792;17.626;2022-10-17T07:45:29;3.13;;;1.20;;
60612;SDS011;46443;59.792;17.626;2022-10-17T07:47:55;2.73;;;1.20;;
60612;SDS011;46443;59.792;17.626;2022-10-17T07:50:22;4.23;;;1.33;;
60612;SDS011;46443;59.792;17.626;2022-10-17T07:52:48;4.33;;;1.43;;
60612;SDS011;46443;59.792;17.626;2022-10-17T07:55:14;4.47;;;1.47;;
60612;SDS011;46443;59.792;17.626;2022-10-17T07:57:40;5.17;;;1.43;;
60612;SDS011;46443;59.792;17.626;2022-10-17T08:00:07;6.30;;;1.57;;
60612;SDS011;46443;59.792;17.626;2022-10-17T08:02:33;4.10;;;1.10;;
60612;SDS011;46443;59.792;17.626;2022-10-17T08:04:59;3.03;;;1.10;;
60612;SDS011;46443;59.792;17.626;2022-10-17T08:07:30;3.57;;;1.10;;
60612;SDS011;46443;59.792;17.626;2022-10-17T08:09:56;3.87;;;1.40;;
60612;SDS011;46443;59.792;17.626;2022-10-17T08:12:22;4.23;;;1.20;;
60612;SDS011;46443;59.792;17.626;2022-10-17T08:14:49;2.67;;;1.23;;
60612;SDS011;46443;59.792;17.626;2022-10-17T08:17:15;4.20;;;1.40;;
60612;SDS011;46443;59.792;17.626;2022-10-17T08:19:41;5.43;;;2.07;;
60612;SDS011;46443;59.792;17.626;2022-10-17T08:22:07;4.10;;;1.30;;
60612;SDS011;46443;59.792;17.626;2022-10-17T08:24:34;4.63;;;1.17;;
60612;SDS011;46443;59.792;17.626;2022-10-17T08:27:00;4.63;;;1.40;;
60612;SDS011;46443;59.792;17.626;2022-10-17T08:29:26;1.87;;;1.07;;
60612;SDS011;46443;59.792;17.626;2022-10-17T08:31:52;3.50;;;1.10;;
60612;SDS011;46443;59.792;17.626;2022-10-17T08:34:18;5.63;;;1.10;;
60612;SDS011;46443;59.792;17.626;2022-10-17T08:36:44;5.57;;;1.40;;
60612;SDS011;46443;59.792;17.626;2022-10-17T08:39:10;1.93;;;1.20;;
60612;SDS011;46443;59.792;17.626;2022-10-17T08:46:35;5.43;;;1.40;;
60612;SDS011;46443;59.792;17.626;2022-10-17T08:49:02;2.97;;;1.10;;
60612;SDS011;46443;59.792;17.626;2022-10-17T08:51:30;6.30;;;1.73;;
60612;SDS011;46443;59.792;17.626;2022-10-17T08:56:33;5.83;;;1.00;;
60612;SDS011;46443;59.792;17.626;2022-10-17T08:59:00;4.13;;;1.10;;
60612;SDS011;46443;59.792;17.626;2022-10-17T09:06:41;4.03;;;1.53;;
60612;SDS011;46443;59.792;17.626;2022-10-17T09:27:04;3.90;;;1.30;;
60612;SDS011;46443;59.792;17.626;2022-10-17T09:29:31;4.03;;;1.13;;
60612;SDS011;46443;59.792;17.626;2022-10-17T09:31:59;2.60;;;1.00;;
60612;SDS011;46443;59.792;17.626;2022-10-17T09:34:27;3.97;;;1.30;;
60612;SDS011;46443;59.792;17.626;2022-10-17T09:36:53;3.23;;;1.17;;
60612;SDS011;46443;59.792;17.626;2022-10-17T09:39:21;3.97;;;1.20;;
60612;SDS011;46443;59.792;17.626;2022-10-17T09:41:53;3.47;;;1.40;;
60612;SDS011;46443;59.792;17.626;2022-10-17T09:44:21;4.67;;;1.23;;
60612;SDS011;46443;59.792;17.626;2022-10-17T09:46:51;3.30;;;1.20;;
60612;SDS011;46443;59.792;17.626;2022-10-17T09:49:22;2.60;;;1.27;;
60612;SDS011;46443;59.792;17.626;2022-10-17T09:51:50;4.40;;;1.50;;
60612;SDS011;46443;59.792;17.626;2022-10-17T09:54:18;2.87;;;1.33;;
60612;SDS011;46443;59.792;17.626;2022-10-17T09:59:34;1.40;;;1.00;;
60612;SDS011;46443;59.792;17.626;2022-10-17T10:04:50;2.97;;;1.40;;
60612;SDS011;46443;59.792;17.626;2022-10-17T10:07:16;3.30;;;1.07;;
60612;SDS011;46443;59.792;17.626;2022-10-17T10:09:45;3.37;;;1.70;;
60612;SDS011;46443;59.792;17.626;2022-10-17T10:14:46;2.67;;;1.20;;
60612;SDS011;46443;59.792;17.626;2022-10-17T10:17:27;0.83;;;0.83;;
60612;SDS011;46443;59.792;17.626;2022-10-17T10:19:53;1.93;;;1.10;;
60612;SDS011;46443;59.792;17.626;2022-10-17T10:22:20;3.37;;;1.30;;
60612;SDS011;46443;59.792;17.626;2022-10-17T10:27:34;1.87;;;1.03;;
60612;SDS011;46443;59.792;17.626;2022-10-17T10:30:00;3.27;;;1.00;;
60612;SDS011;46443;59.792;17.626;2022-10-17T10:32:28;4.80;;;1.40;;
60612;SDS011;46443;59.792;17.626;2022-10-17T10:34:55;1.93;;;1.07;;
60612;SDS011;46443;59.792;17.626;2022-10-17T10:37:24;4.40;;;1.20;;
60612;SDS011;46443;59.792;17.626;2022-10-17T10:42:27;2.27;;;1.40;;
60612;SDS011;46443;59.792;17.626;2022-10-17T10:44:54;1.90;;;1.20;;
60612;SDS011;46443;59.792;17.626;2022-10-17T10:47:23;1.63;;;1.17;;
60612;SDS011;46443;59.792;17.626;2022-10-17T10:49:51;3.50;;;1.30;;
60612;SDS011;46443;59.792;17.626;2022-10-17T10:52:29;4.43;;;1.40;;
60612;SDS011;46443;59.792;17.626;2022-10-17T10:54:58;1.67;;;1.20;;
60612;SDS011;46443;59.792;17.626;2022-10-17T10:57:26;3.08;;;1.02;;
60612;SDS011;46443;59.792;17.626;2022-10-17T10:59:57;1.27;;;0.95;;
60612;SDS011;46443;59.792;17.626;2022-10-17T11:02:58;4.28;;;1.15;;
60612;SDS011;46443;59.792;17.626;2022-10-17T11:05:20;2.53;;;1.05;;
60612;SDS011;46443;59.792;17.626;2022-10-17T11:12:45;2.63;;;1.17;;
60612;SDS011;46443;59.792;17.626;2022-10-17T11:15:25;2.75;;;0.85;;
60612;SDS011;46443;59.792;17.626;2022-10-17T11:25:36;2.33;;;1.00;;
60612;SDS011;46443;59.792;17.626;2022-10-17T11:28:03;2.00;;;1.10;;
60612;SDS011;46443;59.792;17.626;2022-10-17T11:30:55;3.70;;;1.05;;
60612;SDS011;46443;59.792;17.626;2022-10-17T11:36:07;1.52;;;0.85;;
60612;SDS011;46443;59.792;17.626;2022-10-17T11:41:03;1.83;;;0.90;;
60612;SDS011;46443;59.792;17.626;2022-10-17T11:43:38;2.38;;;1.20;;
60612;SDS011;46443;59.792;17.626;2022-10-17T11:48:42;2.17;;;1.20;;
60612;SDS011;46443;59.792;17.626;2022-10-17T11:51:11;2.97;;;1.20;;
60612;SDS011;46443;59.792;17.626;2022-10-17T11:53:54;3.30;;;1.10;;
60612;SDS011;46443;59.792;17.626;2022-10-17T11:59:29;4.03;;;1.17;;
60612;SDS011;46443;59.792;17.626;2022-10-17T12:02:03;1.03;;;0.93;;
60612;SDS011;46443;59.792;17.626;2022-10-17T12:07:21;1.73;;;1.20;;
60612;SDS011;46443;59.792;17.626;2022-10-17T12:09:53;3.30;;;1.20;;
60612;SDS011;46443;59.792;17.626;2022-10-17T12:12:23;2.83;;;1.07;;
60612;SDS011;46443;59.792;17.626;2022-10-17T12:14:50;2.80;;;1.17;;
60612;SDS011;46443;59.792;17.626;2022-10-17T12:19:48;1.90;;;0.80;;
60612;SDS011;46443;59.792;17.626;2022-10-17T12:22:21;2.70;;;1.10;;
60612;SDS011;46443;59.792;17.626;2022-10-17T12:29:47;2.55;;;1.10;;
60612;SDS011;46443;59.792;17.626;2022-10-17T12:32:13;3.57;;;1.20;;
60612;SDS011;46443;59.792;17.626;2022-10-17T12:34:49;3.17;;;1.10;;
60612;SDS011;46443;59.792;17.626;2022-10-17T12:37:32;4.07;;;1.20;;
60612;SDS011;46443;59.792;17.626;2022-10-17T12:40:02;2.10;;;1.10;;
60612;SDS011;46443;59.792;17.626;2022-10-17T12:42:29;2.00;;;1.17;;
60612;SDS011;46443;59.792;17.626;2022-10-17T12:44:55;8.40;;;1.20;;
60612;SDS011;46443;59.792;17.626;2022-10-17T12:49:50;5.80;;;2.70;;
60612;SDS011;46443;59.792;17.626;2022-10-17T12:52:23;5.63;;;1.50;;
60612;SDS011;46443;59.792;17.626;2022-10-17T12:59:45;3.10;;;1.30;;
60612;SDS011;46443;59.792;17.626;2022-10-17T13:02:15;2.93;;;1.17;;
60612;SDS011;46443;59.792;17.626;2022-10-17T13:04:43;2.03;;;1.07;;
60612;SDS011;46443;59.792;17.626;2022-10-17T13:07:17;3.30;;;0.87;;
60612;SDS011;46443;59.792;17.626;2022-10-17T13:09:43;3.60;;;1.33;;
60612;SDS011;46443;59.792;17.626;2022-10-17T13:12:11;1.80;;;1.00;;
60612;SDS011;46443;59.792;17.626;2022-10-17T13:14:39;2.77;;;1.10;;
60612;SDS011;46443;59.792;17.626;2022-10-17T13:17:11;3.70;;;1.00;;
60612;SDS011;46443;59.792;17.626;2022-10-17T13:19:45;3.13;;;1.17;;
60612;SDS011;46443;59.792;17.626;2022-10-17T13:24:40;4.28;;;1.70;;
60612;SDS011;46443;59.792;17.626;2022-10-17T13:27:28;5.53;;;1.53;;
60612;SDS011;46443;59.792;17.626;2022-10-17T13:29:53;4.23;;;2.13;;
60612;SDS011;46443;59.792;17.626;2022-10-17T13:35:22;3.60;;;1.50;;
60612;SDS011;46443;59.792;17.626;2022-10-17T13:37:44;5.27;;;1.73;;
60612;SDS011;46443;59.792;17.626;2022-10-17T13:40:18;4.40;;;1.80;;
60612;SDS011;46443;59.792;17.626;2022-10-17T13:42:44;2.77;;;1.30;;
60612;SDS011;46443;59.792;17.626;2022-10-17T13:47:49;7.20;;;1.63;;
60612;SDS011;46443;59.792;17.626;2022-10-17T13:52:43;4.97;;;2.37;;
60612;SDS011;46443;59.792;17.626;2022-10-17T13:55:14;6.47;;;1.60;;
60612;SDS011;46443;59.792;17.626;2022-10-17T13:57:40;6.13;;;1.50;;
60612;SDS011;46443;59.792;17.626;2022-10-17T14:00:10;3.60;;;1.53;;
60612;SDS011;46443;59.792;17.626;2022-10-17T14:02:40;4.13;;;1.30;;
60612;SDS011;46443;59.792;17.626;2022-10-17T14:10:05;5.37;;;1.63;;
60612;SDS011;46443;59.792;17.626;2022-10-17T14:12:31;3.57;;;1.50;;
60612;SDS011;46443;59.792;17.626;2022-10-17T14:14:58;3.07;;;1.57;;
60612;SDS011;46443;59.792;17.626;2022-10-17T14:17:27;6.55;;;1.60;;
60612;SDS011;46443;59.792;17.626;2022-10-17T14:19:55;3.00;;;1.27;;
60612;SDS011;46443;59.792;17.626;2022-10-17T14:24:48;5.03;;;1.40;;
60612;SDS011;46443;59.792;17.626;2022-10-17T14:27:35;6.00;;;1.77;;
60612;SDS011;46443;59.792;17.626;2022-10-17T14:30:28;7.00;;;1.80;;
60612;SDS011;46443;59.792;17.626;2022-10-17T14:32:49;7.00;;;2.20;;
60612;SDS011;46443;59.792;17.626;2022-10-17T14:35:15;6.60;;;1.70;;
60612;SDS011;46443;59.792;17.626;2022-10-17T14:37:45;6.60;;;1.97;;
60612;SDS011;46443;59.792;17.626;2022-10-17T14:40:16;4.03;;;1.60;;
60612;SDS011;46443;59.792;17.626;2022-10-17T14:42:42;12.67;;;1.80;;
60612;SDS011;46443;59.792;17.626;2022-10-17T14:45:14;7.67;;;1.80;;
60612;SDS011;46443;59.792;17.626;2022-10-17T14:47:40;5.77;;;1.90;;
60612;SDS011;46443;59.792;17.626;2022-10-17T14:50:19;7.77;;;2.17;;
60612;SDS011;46443;59.792;17.626;2022-10-17T14:52:58;6.27;;;1.60;;
60612;SDS011;46443;59.792;17.626;2022-10-17T14:55:26;7.90;;;2.10;;
60612;SDS011;46443;59.792;17.626;2022-10-17T14:57:52;7.27;;;1.70;;
60612;SDS011;46443;59.792;17.626;2022-10-17T15:00:19;8.40;;;1.90;;
60612;SDS011;46443;59.792;17.626;2022-10-17T15:02:46;4.43;;;1.63;;
60612;SDS011;46443;59.792;17.626;2022-10-17T15:05:13;5.40;;;2.03;;
60612;SDS011;46443;59.792;17.626;2022-10-17T15:07:39;6.63;;;1.80;;
60612;SDS011;46443;59.792;17.626;2022-10-17T15:10:05;7.67;;;2.07;;
60612;SDS011;46443;59.792;17.626;2022-10-17T15:12:31;10.20;;;2.13;;
60612;SDS011;46443;59.792;17.626;2022-10-17T15:14:57;10.40;;;2.10;;
60612;SDS011;46443;59.792;17.626;2022-10-17T15:17:24;5.93;;;1.73;;
60612;SDS011;46443;59.792;17.626;2022-10-17T15:19:51;6.47;;;1.80;;
60612;SDS011;46443;59.792;17.626;2022-10-17T15:22:17;10.23;;;2.20;;
60612;SDS011;46443;59.792;17.626;2022-10-17T15:24:44;5.00;;;1.70;;
60612;SDS011;46443;59.792;17.626;2022-10-17T15:27:14;7.20;;;2.10;;
60612;SDS011;46443;59.792;17.626;2022-10-17T15:29:40;7.90;;;1.80;;
60612;SDS011;46443;59.792;17.626;2022-10-17T15:32:06;9.60;;;2.37;;
60612;SDS011;46443;59.792;17.626;2022-10-17T15:34:32;5.67;;;1.90;;
60612;SDS011;46443;59.792;17.626;2022-10-17T15:36:58;5.10;;;2.00;;
60612;SDS011;46443;59.792;17.626;2022-10-17T15:39:24;9.17;;;2.10;;
60612;SDS011;46443;59.792;17.626;2022-10-17T15:41:50;6.73;;;1.80;;
60612;SDS011;46443;59.792;17.626;2022-10-17T15:44:17;6.87;;;2.30;;
60612;SDS011;46443;59.792;17.626;2022-10-17T15:46:43;8.60;;;1.80;;
60612;SDS011;46443;59.792;17.626;2022-10-17T15:49:10;9.63;;;1.83;;
60612;SDS011;46443;59.792;17.626;2022-10-17T15:51:36;6.80;;;2.10;;
60612;SDS011;46443;59.792;17.626;2022-10-17T15:54:02;5.77;;;1.83;;
60612;SDS011;46443;59.792;17.626;2022-10-17T15:58:56;9.97;;;2.20;;
60612;SDS011;46443;59.792;17.626;2022-10-17T16:01:23;6.57;;;2.10;;
60612;SDS011;46443;59.792;17.626;2022-10-17T16:03:49;8.67;;;2.10;;
60612;SDS011;46443;59.792;17.626;2022-10-17T16:06:16;9.57;;;2.40;;
60612;SDS011;46443;59.792;17.626;2022-10-17T16:08:43;7.63;;;2.13;;
60612;SDS011;46443;59.792;17.626;2022-10-17T16:11:15;7.53;;;2.13;;
60612;SDS011;46443;59.792;17.626;2022-10-17T16:13:41;8.13;;;1.97;;
60612;SDS011;46443;59.792;17.626;2022-10-17T16:16:09;6.83;;;2.27;;
60612;SDS011;46443;59.792;17.626;2022-10-17T16:18:36;6.33;;;2.00;;
60612;SDS011;46443;59.792;17.626;2022-10-17T16:21:02;8.40;;;2.43;;
60612;SDS011;46443;59.792;17.626;2022-10-17T16:23:28;6.67;;;2.00;;
60612;SDS011;46443;59.792;17.626;2022-10-17T16:25:54;10.53;;;2.50;;
60612;SDS011;46443;59.792;17.626;2022-10-17T16:28:20;10.10;;;2.57;;
60612;SDS011;46443;59.792;17.626;2022-10-17T16:30:46;8.30;;;2.77;;
60612;SDS011;46443;59.792;17.626;2022-10-17T16:33:13;7.90;;;2.60;;
60612;SDS011;46443;59.792;17.626;2022-10-17T16:35:39;6.93;;;2.23;;
60612;SDS011;46443;59.792;17.626;2022-10-17T16:38:05;6.37;;;1.90;;
60612;SDS011;46443;59.792;17.626;2022-10-17T16:40:32;10.03;;;2.27;;
60612;SDS011;46443;59.792;17.626;2022-10-17T16:42:58;6.23;;;2.60;;
60612;SDS011;46443;59.792;17.626;2022-10-17T16:45:24;7.27;;;2.27;;
60612;SDS011;46443;59.792;17.626;2022-10-17T16:47:50;10.40;;;2.80;;
60612;SDS011;46443;59.792;17.626;2022-10-17T16:50:17;6.23;;;2.63;;
60612;SDS011;46443;59.792;17.626;2022-10-17T16:52:43;7.80;;;2.20;;
60612;SDS011;46443;59.792;17.626;2022-10-17T16:55:10;9.87;;;2.50;;
60612;SDS011;46443;59.792;17.626;2022-10-17T16:57:36;8.57;;;2.50;;
60612;SDS011;46443;59.792;17.626;2022-10-17T17:00:03;9.37;;;2.57;;